CBBC

Bella Bella/Campbell Island Airport

Bella Bella, British Columbia, Canada

CBBC 190852Z AUTO 21004KT 180V270 9SM FEW011 SCT025 OVC055 13/12 A3021 RMK SLP230

Observed Flight Rules
Aug-19 @ 08:52 UTC (12 minutes ago)
 
Visual Flight Rules
Wind Visibility Clouds
210° at 4 knots 9 miles
  • Few at 1,100' AGL
  • Scattered at 2,500' AGL
  • Overcast at 5,500' AGL
Temperatures Readings
Current 13°C / 55°F
Dewpoint 12°C / 54°F
Humidity 94%
Altimeter 30.21" Hg
Pressure 1023 hPa
Elevation 43
Observed Flight Rules
Aug-19 @ 08:52 UTC
(12 minutes ago)
 
VFR
Wind Visibility
210° at 4 knots 9 miles
Clouds
  • Few at 1,100' AGL
  • Scattered at 2,500' AGL
  • Overcast at 5,500' AGL
Temperature Dewpoint
13°C / 55°F 12°C / 54°F
Humidity Altimeter Pressure
94% 30.21" Hg 1023 hPa